sensor_id;sensor_type;location;lat;lon;timestamp;temperature;humidity
11122;DHT22;5615;49.304;10.576;2023-02-03T00:02:04;4.30;99.90
11122;DHT22;5615;49.304;10.576;2023-02-03T00:04:30;4.20;99.90
11122;DHT22;5615;49.304;10.576;2023-02-03T00:06:57;4.30;99.90
11122;DHT22;5615;49.304;10.576;2023-02-03T00:09:24;4.30;99.90
11122;DHT22;5615;49.304;10.576;2023-02-03T00:11:51;4.30;99.90
11122;DHT22;5615;49.304;10.576;2023-02-03T00:14:18;4.30;99.90
11122;DHT22;5615;49.304;10.576;2023-02-03T00:16:44;4.30;99.90
11122;DHT22;5615;49.304;10.576;2023-02-03T00:19:12;4.30;99.90
11122;DHT22;5615;49.304;10.576;2023-02-03T00:21:39;4.30;99.90
11122;DHT22;5615;49.304;10.576;2023-02-03T00:24:05;4.30;99.90
11122;DHT22;5615;49.304;10.576;2023-02-03T00:26:32;4.20;99.90
11122;DHT22;5615;49.304;10.576;2023-02-03T00:28:59;4.30;99.90
11122;DHT22;5615;49.304;10.576;2023-02-03T00:31:25;4.30;99.90
11122;DHT22;5615;49.304;10.576;2023-02-03T00:33:53;4.30;99.90
11122;DHT22;5615;49.304;10.576;2023-02-03T00:36:22;4.30;99.90
11122;DHT22;5615;49.304;10.576;2023-02-03T00:38:48;4.30;99.90
11122;DHT22;5615;49.304;10.576;2023-02-03T00:41:15;4.30;99.90
11122;DHT22;5615;49.304;10.576;2023-02-03T00:43:42;4.30;99.90
11122;DHT22;5615;49.304;10.576;2023-02-03T00:46:09;4.30;99.90
11122;DHT22;5615;49.304;10.576;2023-02-03T00:48:35;4.40;99.90
11122;DHT22;5615;49.304;10.576;2023-02-03T00:51:02;4.40;99.90
11122;DHT22;5615;49.304;10.576;2023-02-03T00:53:30;4.40;99.90
11122;DHT22;5615;49.304;10.576;2023-02-03T00:55:57;4.40;99.90
11122;DHT22;5615;49.304;10.576;2023-02-03T00:58:24;4.40;99.90
11122;DHT22;5615;49.304;10.576;2023-02-03T01:00:50;4.40;99.90
11122;DHT22;5615;49.304;10.576;2023-02-03T01:03:17;4.40;99.90
11122;DHT22;5615;49.304;10.576;2023-02-03T01:05:43;4.40;99.90
11122;DHT22;5615;49.304;10.576;2023-02-03T01:08:10;4.40;99.90
11122;DHT22;5615;49.304;10.576;2023-02-03T01:10:38;4.50;99.90
11122;DHT22;5615;49.304;10.576;2023-02-03T01:13:05;4.50;99.90
11122;DHT22;5615;49.304;10.576;2023-02-03T01:15:31;4.50;99.90
11122;DHT22;5615;49.304;10.576;2023-02-03T01:17:58;4.60;99.90
11122;DHT22;5615;49.304;10.576;2023-02-03T01:20:24;4.60;99.90
11122;DHT22;5615;49.304;10.576;2023-02-03T01:22:51;4.60;99.90
11122;DHT22;5615;49.304;10.576;2023-02-03T01:25:18;4.60;99.90
11122;DHT22;5615;49.304;10.576;2023-02-03T01:27:45;4.60;99.90
11122;DHT22;5615;49.304;10.576;2023-02-03T01:30:13;4.60;99.90
11122;DHT22;5615;49.304;10.576;2023-02-03T01:32:39;4.60;99.90
11122;DHT22;5615;49.304;10.576;2023-02-03T01:35:06;4.70;99.90
11122;DHT22;5615;49.304;10.576;2023-02-03T01:37:33;4.70;99.90
11122;DHT22;5615;49.304;10.576;2023-02-03T01:39:59;4.60;99.90
11122;DHT22;5615;49.304;10.576;2023-02-03T01:42:31;4.60;99.90
11122;DHT22;5615;49.304;10.576;2023-02-03T01:44:59;4.60;99.90
11122;DHT22;5615;49.304;10.576;2023-02-03T01:47:31;4.70;99.90
11122;DHT22;5615;49.304;10.576;2023-02-03T01:50:04;4.60;99.90
11122;DHT22;5615;49.304;10.576;2023-02-03T01:52:34;4.60;99.90
11122;DHT22;5615;49.304;10.576;2023-02-03T01:55:05;4.60;99.90
11122;DHT22;5615;49.304;10.576;2023-02-03T01:57:37;4.70;99.90
11122;DHT22;5615;49.304;10.576;2023-02-03T02:00:07;4.70;99.90
11122;DHT22;5615;49.304;10.576;2023-02-03T02:02:34;4.70;99.90
11122;DHT22;5615;49.304;10.576;2023-02-03T02:05:05;4.70;99.90
11122;DHT22;5615;49.304;10.576;2023-02-03T02:07:33;4.70;99.90
11122;DHT22;5615;49.304;10.576;2023-02-03T02:10:02;4.70;99.90
11122;DHT22;5615;49.304;10.576;2023-02-03T02:12:29;4.70;99.90
11122;DHT22;5615;49.304;10.576;2023-02-03T02:14:56;4.70;99.90
11122;DHT22;5615;49.304;10.576;2023-02-03T02:17:40;4.70;99.90
11122;DHT22;5615;49.304;10.576;2023-02-03T02:20:35;4.70;99.90
11122;DHT22;5615;49.304;10.576;2023-02-03T02:23:20;4.70;99.90
11122;DHT22;5615;49.304;10.576;2023-02-03T02:26:05;4.80;99.90
11122;DHT22;5615;49.304;10.576;2023-02-03T02:28:52;4.80;99.90
11122;DHT22;5615;49.304;10.576;2023-02-03T02:34:22;4.80;99.90
11122;DHT22;5615;49.304;10.576;2023-02-03T02:36:56;4.80;99.90
11122;DHT22;5615;49.304;10.576;2023-02-03T02:39:32;4.80;99.90
11122;DHT22;5615;49.304;10.576;2023-02-03T02:42:07;4.70;99.90
11122;DHT22;5615;49.304;10.576;2023-02-03T02:44:39;4.70;99.90
11122;DHT22;5615;49.304;10.576;2023-02-03T02:47:11;4.70;99.90
11122;DHT22;5615;49.304;10.576;2023-02-03T02:49:44;4.70;99.90
11122;DHT22;5615;49.304;10.576;2023-02-03T02:52:14;4.70;99.90
11122;DHT22;5615;49.304;10.576;2023-02-03T02:54:47;4.70;99.90
11122;DHT22;5615;49.304;10.576;2023-02-03T02:57:17;4.80;99.90
11122;DHT22;5615;49.304;10.576;2023-02-03T02:59:44;4.80;99.90
11122;DHT22;5615;49.304;10.576;2023-02-03T03:02:12;4.80;99.90
11122;DHT22;5615;49.304;10.576;2023-02-03T03:04:39;4.80;99.90
11122;DHT22;5615;49.304;10.576;2023-02-03T03:07:09;4.80;99.90
11122;DHT22;5615;49.304;10.576;2023-02-03T03:09:40;4.80;99.90
11122;DHT22;5615;49.304;10.576;2023-02-03T03:12:11;4.80;99.90
11122;DHT22;5615;49.304;10.576;2023-02-03T03:14:42;4.80;99.90
11122;DHT22;5615;49.304;10.576;2023-02-03T03:17:16;4.90;99.90
11122;DHT22;5615;49.304;10.576;2023-02-03T03:19:48;4.90;99.90
11122;DHT22;5615;49.304;10.576;2023-02-03T03:22:16;4.90;99.90
11122;DHT22;5615;49.304;10.576;2023-02-03T03:24:46;4.90;99.90
11122;DHT22;5615;49.304;10.576;2023-02-03T03:27:18;4.90;99.90
11122;DHT22;5615;49.304;10.576;2023-02-03T03:29:49;4.90;99.90
11122;DHT22;5615;49.304;10.576;2023-02-03T03:32:18;4.90;99.90
11122;DHT22;5615;49.304;10.576;2023-02-03T03:34:45;4.90;99.90
11122;DHT22;5615;49.304;10.576;2023-02-03T03:37:15;4.90;99.90
11122;DHT22;5615;49.304;10.576;2023-02-03T03:39:46;4.90;99.90
11122;DHT22;5615;49.304;10.576;2023-02-03T03:42:19;4.90;99.90
11122;DHT22;5615;49.304;10.576;2023-02-03T03:44:50;4.90;99.90
11122;DHT22;5615;49.304;10.576;2023-02-03T03:47:23;4.90;99.90
11122;DHT22;5615;49.304;10.576;2023-02-03T03:49:53;4.90;99.90
11122;DHT22;5615;49.304;10.576;2023-02-03T03:52:23;4.90;99.90
11122;DHT22;5615;49.304;10.576;2023-02-03T03:54:51;5.00;99.90
11122;DHT22;5615;49.304;10.576;2023-02-03T03:57:22;5.00;99.90
11122;DHT22;5615;49.304;10.576;2023-02-03T03:59:52;4.90;99.90
11122;DHT22;5615;49.304;10.576;2023-02-03T04:02:21;4.90;99.90
11122;DHT22;5615;49.304;10.576;2023-02-03T04:04:49;5.00;99.90
11122;DHT22;5615;49.304;10.576;2023-02-03T04:07:17;5.00;99.90
11122;DHT22;5615;49.304;10.576;2023-02-03T04:09:44;4.90;99.90
11122;DHT22;5615;49.304;10.576;2023-02-03T04:12:18;5.00;99.90
11122;DHT22;5615;49.304;10.576;2023-02-03T04:14:47;5.00;99.90
11122;DHT22;5615;49.304;10.576;2023-02-03T04:17:14;5.00;99.90
11122;DHT22;5615;49.304;10.576;2023-02-03T04:19:42;5.00;99.90
11122;DHT22;5615;49.304;10.576;2023-02-03T04:22:08;5.00;99.90
11122;DHT22;5615;49.304;10.576;2023-02-03T04:24:35;5.00;99.90
11122;DHT22;5615;49.304;10.576;2023-02-03T04:27:01;5.00;99.90
11122;DHT22;5615;49.304;10.576;2023-02-03T04:29:28;5.00;99.90
11122;DHT22;5615;49.304;10.576;2023-02-03T04:31:55;5.00;99.90
11122;DHT22;5615;49.304;10.576;2023-02-03T04:34:21;5.00;99.90
11122;DHT22;5615;49.304;10.576;2023-02-03T04:36:49;5.00;99.90
11122;DHT22;5615;49.304;10.576;2023-02-03T04:39:16;5.00;99.90
11122;DHT22;5615;49.304;10.576;2023-02-03T04:41:42;5.00;99.90
11122;DHT22;5615;49.304;10.576;2023-02-03T04:44:09;5.00;99.90
11122;DHT22;5615;49.304;10.576;2023-02-03T04:46:35;5.00;99.90
11122;DHT22;5615;49.304;10.576;2023-02-03T04:49:02;5.00;99.90
11122;DHT22;5615;49.304;10.576;2023-02-03T04:51:29;5.00;99.90
11122;DHT22;5615;49.304;10.576;2023-02-03T04:53:57;5.00;99.90
11122;DHT22;5615;49.304;10.576;2023-02-03T04:56:23;5.00;99.90
11122;DHT22;5615;49.304;10.576;2023-02-03T04:58:50;5.00;99.90
11122;DHT22;5615;49.304;10.576;2023-02-03T05:01:16;4.90;99.90
11122;DHT22;5615;49.304;10.576;2023-02-03T05:03:43;5.00;99.90
11122;DHT22;5615;49.304;10.576;2023-02-03T05:06:09;5.00;99.90
11122;DHT22;5615;49.304;10.576;2023-02-03T05:08:36;4.90;99.90
11122;DHT22;5615;49.304;10.576;2023-02-03T05:11:04;4.90;99.90
11122;DHT22;5615;49.304;10.576;2023-02-03T05:13:31;4.90;99.90
11122;DHT22;5615;49.304;10.576;2023-02-03T05:15:57;4.90;99.90
11122;DHT22;5615;49.304;10.576;2023-02-03T05:18:24;4.90;99.90
11122;DHT22;5615;49.304;10.576;2023-02-03T05:20:50;5.00;99.90
11122;DHT22;5615;49.304;10.576;2023-02-03T05:23:17;4.90;99.90
11122;DHT22;5615;49.304;10.576;2023-02-03T05:25:44;5.00;99.90
11122;DHT22;5615;49.304;10.576;2023-02-03T05:28:12;5.00;99.90
11122;DHT22;5615;49.304;10.576;2023-02-03T05:30:38;5.00;99.90
11122;DHT22;5615;49.304;10.576;2023-02-03T05:33:05;5.00;99.90
11122;DHT22;5615;49.304;10.576;2023-02-03T05:35:32;5.00;99.90
11122;DHT22;5615;49.304;10.576;2023-02-03T05:37:58;5.00;99.90
11122;DHT22;5615;49.304;10.576;2023-02-03T05:40:25;5.00;99.90
11122;DHT22;5615;49.304;10.576;2023-02-03T05:43:09;4.90;99.90
11122;DHT22;5615;49.304;10.576;2023-02-03T05:45:37;5.00;99.90
11122;DHT22;5615;49.304;10.576;2023-02-03T05:48:04;5.10;99.90
11122;DHT22;5615;49.304;10.576;2023-02-03T05:50:32;5.00;99.90
11122;DHT22;5615;49.304;10.576;2023-02-03T05:52:59;5.00;99.90
11122;DHT22;5615;49.304;10.576;2023-02-03T05:55:26;5.10;99.90
11122;DHT22;5615;49.304;10.576;2023-02-03T05:57:53;5.10;99.90
11122;DHT22;5615;49.304;10.576;2023-02-03T06:00:21;5.00;99.90
11122;DHT22;5615;49.304;10.576;2023-02-03T06:02:51;5.10;99.90
11122;DHT22;5615;49.304;10.576;2023-02-03T06:05:19;5.00;99.90
11122;DHT22;5615;49.304;10.576;2023-02-03T06:07:45;5.00;99.90
11122;DHT22;5615;49.304;10.576;2023-02-03T06:10:12;5.00;99.90
11122;DHT22;5615;49.304;10.576;2023-02-03T06:12:39;4.90;99.90
11122;DHT22;5615;49.304;10.576;2023-02-03T06:15:07;5.00;99.90
11122;DHT22;5615;49.304;10.576;2023-02-03T06:17:34;5.00;99.90
11122;DHT22;5615;49.304;10.576;2023-02-03T06:20:02;5.00;99.90
11122;DHT22;5615;49.304;10.576;2023-02-03T06:22:29;5.00;99.90
11122;DHT22;5615;49.304;10.576;2023-02-03T06:24:55;5.10;99.90
11122;DHT22;5615;49.304;10.576;2023-02-03T06:27:22;5.00;99.90
11122;DHT22;5615;49.304;10.576;2023-02-03T06:29:49;5.10;99.90
11122;DHT22;5615;49.304;10.576;2023-02-03T06:32:16;5.00;99.90
11122;DHT22;5615;49.304;10.576;2023-02-03T06:34:43;5.00;99.90
11122;DHT22;5615;49.304;10.576;2023-02-03T06:37:10;5.10;99.90
11122;DHT22;5615;49.304;10.576;2023-02-03T06:39:37;5.10;99.90
11122;DHT22;5615;49.304;10.576;2023-02-03T06:42:04;5.10;99.90
11122;DHT22;5615;49.304;10.576;2023-02-03T06:44:30;5.10;99.90
11122;DHT22;5615;49.304;10.576;2023-02-03T06:46:57;5.10;99.90
11122;DHT22;5615;49.304;10.576;2023-02-03T06:49:24;5.10;99.90
11122;DHT22;5615;49.304;10.576;2023-02-03T06:51:51;5.10;99.90
11122;DHT22;5615;49.304;10.576;2023-02-03T06:54:19;5.10;99.90
11122;DHT22;5615;49.304;10.576;2023-02-03T06:56:45;5.10;99.90
11122;DHT22;5615;49.304;10.576;2023-02-03T06:59:12;5.10;99.90
11122;DHT22;5615;49.304;10.576;2023-02-03T07:01:39;5.10;99.90
11122;DHT22;5615;49.304;10.576;2023-02-03T07:04:05;5.10;99.90
11122;DHT22;5615;49.304;10.576;2023-02-03T07:06:32;5.20;99.90
11122;DHT22;5615;49.304;10.576;2023-02-03T07:08:59;5.10;99.90
11122;DHT22;5615;49.304;10.576;2023-02-03T07:11:28;5.10;99.90
11122;DHT22;5615;49.304;10.576;2023-02-03T07:13:54;5.10;99.90
11122;DHT22;5615;49.304;10.576;2023-02-03T07:16:21;5.20;99.90
11122;DHT22;5615;49.304;10.576;2023-02-03T07:18:48;5.10;99.90
11122;DHT22;5615;49.304;10.576;2023-02-03T07:21:15;5.10;99.90
11122;DHT22;5615;49.304;10.576;2023-02-03T07:23:42;5.10;99.90
11122;DHT22;5615;49.304;10.576;2023-02-03T07:26:09;5.00;99.90
11122;DHT22;5615;49.304;10.576;2023-02-03T07:28:37;5.00;99.90
11122;DHT22;5615;49.304;10.576;2023-02-03T07:31:04;5.00;99.90
11122;DHT22;5615;49.304;10.576;2023-02-03T07:33:32;5.00;99.90
11122;DHT22;5615;49.304;10.576;2023-02-03T07:35:59;5.00;99.90
11122;DHT22;5615;49.304;10.576;2023-02-03T07:38:27;5.00;99.90
11122;DHT22;5615;49.304;10.576;2023-02-03T07:40:54;5.00;99.90
11122;DHT22;5615;49.304;10.576;2023-02-03T07:43:21;5.00;99.90
11122;DHT22;5615;49.304;10.576;2023-02-03T07:45:49;5.00;99.90
11122;DHT22;5615;49.304;10.576;2023-02-03T07:48:16;5.10;99.90
11122;DHT22;5615;49.304;10.576;2023-02-03T07:50:42;5.10;99.90
11122;DHT22;5615;49.304;10.576;2023-02-03T07:53:10;5.10;99.90
11122;DHT22;5615;49.304;10.576;2023-02-03T07:55:37;5.10;99.90
11122;DHT22;5615;49.304;10.576;2023-02-03T07:58:04;5.00;99.90
11122;DHT22;5615;49.304;10.576;2023-02-03T08:00:31;5.00;99.90
11122;DHT22;5615;49.304;10.576;2023-02-03T08:02:59;5.00;99.90
11122;DHT22;5615;49.304;10.576;2023-02-03T08:05:26;5.00;99.90
11122;DHT22;5615;49.304;10.576;2023-02-03T08:07:52;5.00;99.90
11122;DHT22;5615;49.304;10.576;2023-02-03T08:10:19;5.10;99.90
11122;DHT22;5615;49.304;10.576;2023-02-03T08:12:45;5.10;99.90
11122;DHT22;5615;49.304;10.576;2023-02-03T08:15:12;5.10;99.90
11122;DHT22;5615;49.304;10.576;2023-02-03T08:17:39;5.10;99.90
11122;DHT22;5615;49.304;10.576;2023-02-03T08:20:09;5.20;99.90
11122;DHT22;5615;49.304;10.576;2023-02-03T08:22:36;5.10;99.90
11122;DHT22;5615;49.304;10.576;2023-02-03T08:25:03;5.20;99.90
11122;DHT22;5615;49.304;10.576;2023-02-03T08:27:31;5.20;99.90
11122;DHT22;5615;49.304;10.576;2023-02-03T08:29:58;5.10;99.90
11122;DHT22;5615;49.304;10.576;2023-02-03T08:32:25;5.10;99.90
11122;DHT22;5615;49.304;10.576;2023-02-03T08:34:52;5.10;99.90
11122;DHT22;5615;49.304;10.576;2023-02-03T08:37:22;5.10;99.90
11122;DHT22;5615;49.304;10.576;2023-02-03T08:39:50;5.20;99.90
11122;DHT22;5615;49.304;10.576;2023-02-03T08:42:17;5.10;99.90
11122;DHT22;5615;49.304;10.576;2023-02-03T08:44:44;5.10;99.90
11122;DHT22;5615;49.304;10.576;2023-02-03T08:47:11;5.00;99.90
11122;DHT22;5615;49.304;10.576;2023-02-03T08:49:38;5.00;99.90
11122;DHT22;5615;49.304;10.576;2023-02-03T08:52:05;5.00;99.90
11122;DHT22;5615;49.304;10.576;2023-02-03T08:54:34;5.10;99.90
11122;DHT22;5615;49.304;10.576;2023-02-03T08:57:00;5.00;99.90
11122;DHT22;5615;49.304;10.576;2023-02-03T08:59:27;5.10;99.90
11122;DHT22;5615;49.304;10.576;2023-02-03T09:01:54;5.00;99.90
11122;DHT22;5615;49.304;10.576;2023-02-03T09:04:21;5.10;99.90
11122;DHT22;5615;49.304;10.576;2023-02-03T09:06:49;5.00;99.90
11122;DHT22;5615;49.304;10.576;2023-02-03T09:09:16;5.00;99.90
11122;DHT22;5615;49.304;10.576;2023-02-03T09:11:44;5.00;99.90
11122;DHT22;5615;49.304;10.576;2023-02-03T09:14:10;5.00;99.90
11122;DHT22;5615;49.304;10.576;2023-02-03T09:16:37;5.00;99.90
11122;DHT22;5615;49.304;10.576;2023-02-03T09:19:04;5.00;99.90
11122;DHT22;5615;49.304;10.576;2023-02-03T09:21:32;5.10;99.90
11122;DHT22;5615;49.304;10.576;2023-02-03T09:23:59;5.10;99.90
11122;DHT22;5615;49.304;10.576;2023-02-03T09:26:26;5.10;99.90
11122;DHT22;5615;49.304;10.576;2023-02-03T09:28:54;5.20;99.90
11122;DHT22;5615;49.304;10.576;2023-02-03T09:31:20;5.20;99.90
11122;DHT22;5615;49.304;10.576;2023-02-03T09:33:47;5.30;99.90
11122;DHT22;5615;49.304;10.576;2023-02-03T09:36:13;5.30;99.90
11122;DHT22;5615;49.304;10.576;2023-02-03T09:38:40;5.20;99.90
11122;DHT22;5615;49.304;10.576;2023-02-03T09:41:17;5.10;99.90
11122;DHT22;5615;49.304;10.576;2023-02-03T09:43:49;5.00;99.90
11122;DHT22;5615;49.304;10.576;2023-02-03T09:46:21;5.10;99.90
11122;DHT22;5615;49.304;10.576;2023-02-03T09:48:51;5.10;99.90
11122;DHT22;5615;49.304;10.576;2023-02-03T09:51:22;5.20;99.90
11122;DHT22;5615;49.304;10.576;2023-02-03T09:53:53;5.20;99.90
11122;DHT22;5615;49.304;10.576;2023-02-03T09:56:26;5.20;99.90
11122;DHT22;5615;49.304;10.576;2023-02-03T09:58:54;5.20;99.90
11122;DHT22;5615;49.304;10.576;2023-02-03T10:01:24;5.20;99.90
11122;DHT22;5615;49.304;10.576;2023-02-03T10:03:57;5.20;99.90
11122;DHT22;5615;49.304;10.576;2023-02-03T10:06:31;5.30;99.90
11122;DHT22;5615;49.304;10.576;2023-02-03T10:09:19;5.30;99.90
11122;DHT22;5615;49.304;10.576;2023-02-03T10:12:14;5.30;99.90
11122;DHT22;5615;49.304;10.576;2023-02-03T10:14:53;5.40;99.90
11122;DHT22;5615;49.304;10.576;2023-02-03T10:17:29;5.40;99.90
11122;DHT22;5615;49.304;10.576;2023-02-03T10:20:02;5.40;99.90
11122;DHT22;5615;49.304;10.576;2023-02-03T10:22:33;5.40;99.90
11122;DHT22;5615;49.304;10.576;2023-02-03T10:25:04;5.40;99.90
11122;DHT22;5615;49.304;10.576;2023-02-03T10:27:33;5.40;99.90
11122;DHT22;5615;49.304;10.576;2023-02-03T10:30:04;5.50;99.90
11122;DHT22;5615;49.304;10.576;2023-02-03T10:32:34;5.40;99.90
11122;DHT22;5615;49.304;10.576;2023-02-03T10:35:02;5.50;99.90
11122;DHT22;5615;49.304;10.576;2023-02-03T10:37:33;5.50;99.90
11122;DHT22;5615;49.304;10.576;2023-02-03T10:40:04;5.50;99.90
11122;DHT22;5615;49.304;10.576;2023-02-03T10:42:31;5.50;99.90
11122;DHT22;5615;49.304;10.576;2023-02-03T10:45:13;5.50;99.90
11122;DHT22;5615;49.304;10.576;2023-02-03T10:47:44;5.50;99.90
11122;DHT22;5615;49.304;10.576;2023-02-03T10:50:15;5.40;99.90
11122;DHT22;5615;49.304;10.576;2023-02-03T10:52:41;5.50;99.90
11122;DHT22;5615;49.304;10.576;2023-02-03T10:55:30;5.50;99.90
11122;DHT22;5615;49.304;10.576;2023-02-03T10:57:57;5.50;99.90
11122;DHT22;5615;49.304;10.576;2023-02-03T11:00:33;5.50;99.90
11122;DHT22;5615;49.304;10.576;2023-02-03T11:03:04;5.60;99.90
11122;DHT22;5615;49.304;10.576;2023-02-03T11:05:32;5.60;99.90
11122;DHT22;5615;49.304;10.576;2023-02-03T11:07:59;5.70;99.90
11122;DHT22;5615;49.304;10.576;2023-02-03T11:10:29;5.70;99.90
11122;DHT22;5615;49.304;10.576;2023-02-03T11:13:16;5.70;99.90
11122;DHT22;5615;49.304;10.576;2023-02-03T11:15:50;5.70;99.90
11122;DHT22;5615;49.304;10.576;2023-02-03T11:18:40;5.70;99.90
11122;DHT22;5615;49.304;10.576;2023-02-03T11:21:14;5.70;99.90
11122;DHT22;5615;49.304;10.576;2023-02-03T11:23:45;5.70;99.90
11122;DHT22;5615;49.304;10.576;2023-02-03T11:26:14;5.70;99.90
11122;DHT22;5615;49.304;10.576;2023-02-03T11:28:42;5.70;99.90
11122;DHT22;5615;49.304;10.576;2023-02-03T11:31:19;5.60;99.90
11122;DHT22;5615;49.304;10.576;2023-02-03T11:33:51;5.70;99.90
11122;DHT22;5615;49.304;10.576;2023-02-03T11:36:19;5.60;99.90
11122;DHT22;5615;49.304;10.576;2023-02-03T11:38:45;5.60;99.90
11122;DHT22;5615;49.304;10.576;2023-02-03T11:41:17;5.60;99.90
11122;DHT22;5615;49.304;10.576;2023-02-03T11:43:44;5.60;99.90
11122;DHT22;5615;49.304;10.576;2023-02-03T11:46:11;5.60;99.90
11122;DHT22;5615;49.304;10.576;2023-02-03T11:48:49;5.60;99.90
11122;DHT22;5615;49.304;10.576;2023-02-03T11:51:25;5.70;99.90
11122;DHT22;5615;49.304;10.576;2023-02-03T11:54:04;5.70;99.90
11122;DHT22;5615;49.304;10.576;2023-02-03T11:56:45;5.80;99.90
11122;DHT22;5615;49.304;10.576;2023-02-03T11:59:33;5.80;99.90
11122;DHT22;5615;49.304;10.576;2023-02-03T12:05:26;6.00;99.90
11122;DHT22;5615;49.304;10.576;2023-02-03T12:08:05;5.90;99.90
11122;DHT22;5615;49.304;10.576;2023-02-03T12:10:43;5.90;99.90
11122;DHT22;5615;49.304;10.576;2023-02-03T12:13:39;5.90;99.90
11122;DHT22;5615;49.304;10.576;2023-02-03T12:16:20;5.90;99.90
11122;DHT22;5615;49.304;10.576;2023-02-03T12:19:00;5.90;99.90
11122;DHT22;5615;49.304;10.576;2023-02-03T12:21:43;5.90;99.90
11122;DHT22;5615;49.304;10.576;2023-02-03T12:24:18;5.90;99.90
11122;DHT22;5615;49.304;10.576;2023-02-03T12:26:56;5.80;99.90
11122;DHT22;5615;49.304;10.576;2023-02-03T12:29:26;5.70;99.90
11122;DHT22;5615;49.304;10.576;2023-02-03T12:32:00;5.70;99.90
11122;DHT22;5615;49.304;10.576;2023-02-03T12:34:32;5.70;99.90
11122;DHT22;5615;49.304;10.576;2023-02-03T12:37:05;5.70;99.90
11122;DHT22;5615;49.304;10.576;2023-02-03T12:39:39;5.70;99.90
11122;DHT22;5615;49.304;10.576;2023-02-03T12:42:14;5.70;99.90
11122;DHT22;5615;49.304;10.576;2023-02-03T12:44:46;5.70;99.90
11122;DHT22;5615;49.304;10.576;2023-02-03T12:47:17;5.60;99.90
11122;DHT22;5615;49.304;10.576;2023-02-03T12:49:50;5.50;99.90
11122;DHT22;5615;49.304;10.576;2023-02-03T12:52:25;5.40;99.90
11122;DHT22;5615;49.304;10.576;2023-02-03T12:55:00;5.30;99.90
11122;DHT22;5615;49.304;10.576;2023-02-03T12:57:33;5.30;99.90
11122;DHT22;5615;49.304;10.576;2023-02-03T13:00:12;5.40;99.90
11122;DHT22;5615;49.304;10.576;2023-02-03T13:02:47;5.40;99.90
11122;DHT22;5615;49.304;10.576;2023-02-03T13:05:22;5.50;99.90
11122;DHT22;5615;49.304;10.576;2023-02-03T13:07:54;5.40;99.90
11122;DHT22;5615;49.304;10.576;2023-02-03T13:10:29;5.50;99.90
11122;DHT22;5615;49.304;10.576;2023-02-03T13:12:57;5.50;99.90
11122;DHT22;5615;49.304;10.576;2023-02-03T13:15:27;5.50;99.90
11122;DHT22;5615;49.304;10.576;2023-02-03T13:17:58;5.50;99.90
11122;DHT22;5615;49.304;10.576;2023-02-03T13:20:28;5.50;99.90
11122;DHT22;5615;49.304;10.576;2023-02-03T13:22:57;5.50;99.90
11122;DHT22;5615;49.304;10.576;2023-02-03T13:25:27;5.50;99.90
11122;DHT22;5615;49.304;10.576;2023-02-03T13:28:05;5.60;99.90
11122;DHT22;5615;49.304;10.576;2023-02-03T13:30:53;5.50;99.90
11122;DHT22;5615;49.304;10.576;2023-02-03T13:33:38;5.60;99.90
11122;DHT22;5615;49.304;10.576;2023-02-03T13:36:25;5.60;99.90
11122;DHT22;5615;49.304;10.576;2023-02-03T13:39:17;5.60;99.90
11122;DHT22;5615;49.304;10.576;2023-02-03T13:41:48;5.60;99.90
11122;DHT22;5615;49.304;10.576;2023-02-03T13:44:18;5.70;99.90
11122;DHT22;5615;49.304;10.576;2023-02-03T13:46:47;5.70;99.90
11122;DHT22;5615;49.304;10.576;2023-02-03T13:49:21;5.60;99.90
11122;DHT22;5615;49.304;10.576;2023-02-03T13:51:49;5.70;99.90
11122;DHT22;5615;49.304;10.576;2023-02-03T13:54:24;5.60;99.90
11122;DHT22;5615;49.304;10.576;2023-02-03T13:56:54;5.60;99.90
11122;DHT22;5615;49.304;10.576;2023-02-03T13:59:27;5.50;99.90
11122;DHT22;5615;49.304;10.576;2023-02-03T14:02:38;5.50;99.90
11122;DHT22;5615;49.304;10.576;2023-02-03T14:07:49;5.50;99.90
11122;DHT22;5615;49.304;10.576;2023-02-03T14:10:21;5.40;99.90
11122;DHT22;5615;49.304;10.576;2023-02-03T14:12:56;5.40;99.90
11122;DHT22;5615;49.304;10.576;2023-02-03T14:15:29;5.40;99.90
11122;DHT22;5615;49.304;10.576;2023-02-03T14:18:04;5.40;99.90
11122;DHT22;5615;49.304;10.576;2023-02-03T14:23:44;5.40;99.90
11122;DHT22;5615;49.304;10.576;2023-02-03T14:26:29;5.30;99.90
11122;DHT22;5615;49.304;10.576;2023-02-03T14:28:57;5.40;99.90
11122;DHT22;5615;49.304;10.576;2023-02-03T14:31:24;5.30;99.90
11122;DHT22;5615;49.304;10.576;2023-02-03T14:34:05;5.40;99.90
11122;DHT22;5615;49.304;10.576;2023-02-03T14:36:36;5.30;99.90
11122;DHT22;5615;49.304;10.576;2023-02-03T14:42:16;5.30;99.90
11122;DHT22;5615;49.304;10.576;2023-02-03T14:44:53;5.30;99.90
11122;DHT22;5615;49.304;10.576;2023-02-03T14:47:34;5.30;99.90
11122;DHT22;5615;49.304;10.576;2023-02-03T14:50:17;5.30;99.90
11122;DHT22;5615;49.304;10.576;2023-02-03T14:52:58;5.20;99.90
11122;DHT22;5615;49.304;10.576;2023-02-03T14:55:38;5.20;99.90
11122;DHT22;5615;49.304;10.576;2023-02-03T14:58:22;5.20;99.90
11122;DHT22;5615;49.304;10.576;2023-02-03T15:00:51;5.20;99.90
11122;DHT22;5615;49.304;10.576;2023-02-03T15:03:21;5.20;99.90
11122;DHT22;5615;49.304;10.576;2023-02-03T15:05:51;5.30;99.90
11122;DHT22;5615;49.304;10.576;2023-02-03T15:08:36;5.30;99.90
11122;DHT22;5615;49.304;10.576;2023-02-03T15:11:20;5.30;99.90
11122;DHT22;5615;49.304;10.576;2023-02-03T15:13:49;5.30;99.90
11122;DHT22;5615;49.304;10.576;2023-02-03T15:16:19;5.30;99.90
11122;DHT22;5615;49.304;10.576;2023-02-03T15:18:53;5.30;99.90
11122;DHT22;5615;49.304;10.576;2023-02-03T15:21:20;5.40;99.90
11122;DHT22;5615;49.304;10.576;2023-02-03T15:23:47;5.40;99.90
11122;DHT22;5615;49.304;10.576;2023-02-03T15:26:17;5.50;99.90
11122;DHT22;5615;49.304;10.576;2023-02-03T15:28:54;5.40;99.90
11122;DHT22;5615;49.304;10.576;2023-02-03T15:31:25;5.40;99.90
11122;DHT22;5615;49.304;10.576;2023-02-03T15:34:00;5.40;99.90
11122;DHT22;5615;49.304;10.576;2023-02-03T15:36:36;5.40;99.90
11122;DHT22;5615;49.304;10.576;2023-02-03T15:39:15;5.40;99.90
11122;DHT22;5615;49.304;10.576;2023-02-03T15:41:45;5.50;99.90
11122;DHT22;5615;49.304;10.576;2023-02-03T15:44:23;5.50;99.90
11122;DHT22;5615;49.304;10.576;2023-02-03T15:46:53;5.40;99.90
11122;DHT22;5615;49.304;10.576;2023-02-03T15:49:23;5.50;99.90
11122;DHT22;5615;49.304;10.576;2023-02-03T15:51:55;5.40;99.90
11122;DHT22;5615;49.304;10.576;2023-02-03T15:54:25;5.50;99.90
11122;DHT22;5615;49.304;10.576;2023-02-03T15:56:56;5.50;99.90
11122;DHT22;5615;49.304;10.576;2023-02-03T15:59:29;5.50;99.90
11122;DHT22;5615;49.304;10.576;2023-02-03T16:01:58;5.50;99.90
11122;DHT22;5615;49.304;10.576;2023-02-03T16:04:25;5.50;99.90
11122;DHT22;5615;49.304;10.576;2023-02-03T16:06:54;5.40;99.90
11122;DHT22;5615;49.304;10.576;2023-02-03T16:09:27;5.40;99.90
11122;DHT22;5615;49.304;10.576;2023-02-03T16:12:15;5.40;99.90
11122;DHT22;5615;49.304;10.576;2023-02-03T16:14:44;5.40;99.90
11122;DHT22;5615;49.304;10.576;2023-02-03T16:17:23;5.40;99.90
11122;DHT22;5615;49.304;10.576;2023-02-03T16:19:51;5.30;99.90
11122;DHT22;5615;49.304;10.576;2023-02-03T16:22:35;5.40;99.90